createdAt,value
2022-11-24T00:01:23.655Z,99.90
2022-11-24T00:04:03.109Z,99.90
2022-11-24T00:06:32.350Z,99.90
2022-11-24T00:08:59.873Z,99.90
2022-11-24T00:11:30.130Z,99.90
2022-11-24T00:13:58.941Z,99.90
2022-11-24T00:16:31.869Z,99.90
2022-11-24T00:19:00.819Z,99.90
2022-11-24T00:21:30.504Z,99.90
2022-11-24T00:23:58.387Z,99.90
2022-11-24T00:26:29.206Z,99.90
2022-11-24T00:28:59.330Z,99.90
2022-11-24T00:31:29.384Z,99.90
2022-11-24T00:33:59.911Z,99.90
2022-11-24T00:36:30.306Z,99.90
2022-11-24T00:39:02.976Z,99.90
2022-11-24T00:41:31.462Z,99.90
2022-11-24T00:43:59.065Z,99.90
2022-11-24T00:46:26.718Z,99.90
2022-11-24T00:48:54.381Z,99.90
2022-11-24T00:51:24.465Z,99.90
2022-11-24T00:53:53.175Z,99.90
2022-11-24T00:56:20.607Z,99.90
2022-11-24T00:58:48.098Z,99.90
2022-11-24T01:01:18.568Z,99.90
2022-11-24T01:03:47.394Z,99.90
2022-11-24T01:06:17.530Z,99.90
2022-11-24T01:08:45.575Z,99.90
2022-11-24T01:11:20.186Z,99.90
2022-11-24T01:13:49.420Z,99.80
2022-11-24T01:16:31.290Z,99.90
2022-11-24T01:18:58.878Z,99.90
2022-11-24T01:21:27.735Z,99.90
2022-11-24T01:23:55.196Z,99.90
2022-11-24T01:26:23.200Z,99.90
2022-11-24T01:28:55.230Z,99.90
2022-11-24T01:31:23.460Z,99.90
2022-11-24T01:33:51.266Z,99.90
2022-11-24T01:36:19.015Z,99.90
2022-11-24T01:38:46.306Z,99.90
2022-11-24T01:41:22.750Z,99.90
2022-11-24T01:43:52.061Z,99.90
2022-11-24T01:46:38.548Z,99.90
2022-11-24T01:49:08.705Z,99.90
2022-11-24T01:52:04.117Z,99.90
2022-11-24T01:54:36.432Z,99.90
2022-11-24T01:57:16.552Z,99.90
2022-11-24T01:59:47.454Z,99.90
2022-11-24T02:02:17.516Z,99.90
2022-11-24T02:04:46.900Z,99.90
2022-11-24T02:07:15.201Z,99.90
2022-11-24T02:09:51.443Z,99.90
2022-11-24T02:12:18.871Z,99.90
2022-11-24T02:14:46.710Z,99.90
2022-11-24T02:17:14.220Z,99.90
2022-11-24T02:19:45.015Z,99.90
2022-11-24T02:22:21.494Z,99.90
2022-11-24T02:25:16.868Z,99.90
2022-11-24T02:27:49.343Z,99.90
2022-11-24T02:30:19.646Z,99.90
2022-11-24T02:32:47.085Z,99.90
2022-11-24T02:35:14.836Z,99.90
2022-11-24T02:37:42.290Z,99.90
2022-11-24T02:40:10.237Z,99.90
2022-11-24T02:42:42.436Z,99.90
2022-11-24T02:45:11.342Z,99.90
2022-11-24T02:47:38.675Z,99.90
2022-11-24T02:50:06.608Z,99.90
2022-11-24T02:52:33.995Z,99.90
2022-11-24T02:55:01.380Z,99.90
2022-11-24T02:57:28.705Z,99.90
2022-11-24T02:59:56.570Z,99.90
2022-11-24T03:02:24.052Z,99.90
2022-11-24T03:04:51.483Z,99.90
2022-11-24T03:07:19.320Z,99.90
2022-11-24T03:09:46.741Z,99.90
2022-11-24T03:12:14.171Z,99.90
2022-11-24T03:14:41.543Z,99.90
2022-11-24T03:17:08.984Z,99.90
2022-11-24T03:19:36.531Z,99.90
2022-11-24T03:22:04.097Z,99.90
2022-11-24T03:24:31.579Z,99.90
2022-11-24T03:26:59.421Z,99.90
2022-11-24T03:29:26.858Z,99.90
2022-11-24T03:31:54.243Z,99.90
2022-11-24T03:34:21.725Z,99.90
2022-11-24T03:36:49.160Z,99.90
2022-11-24T03:39:16.599Z,99.90
2022-11-24T03:41:44.004Z,99.90
2022-11-24T03:44:11.369Z,99.90
2022-11-24T03:46:38.933Z,99.90
2022-11-24T03:49:06.299Z,99.90
2022-11-24T03:51:33.671Z,99.90
2022-11-24T03:54:00.983Z,99.90
2022-11-24T03:56:28.377Z,99.90
2022-11-24T03:58:55.964Z,99.90
2022-11-24T04:01:23.401Z,99.90
2022-11-24T04:03:50.878Z,99.90
2022-11-24T04:06:18.248Z,99.90
2022-11-24T04:08:45.587Z,99.90
2022-11-24T04:11:32.887Z,99.90
2022-11-24T04:14:00.325Z,99.90
2022-11-24T04:16:27.689Z,99.80
2022-11-24T04:18:55.082Z,99.80
2022-11-24T04:21:22.396Z,99.90
2022-11-24T04:23:49.732Z,99.90
2022-11-24T04:26:17.113Z,99.90
2022-11-24T04:28:44.484Z,99.90
2022-11-24T04:31:11.840Z,99.90
2022-11-24T04:33:39.247Z,99.90
2022-11-24T04:36:07.058Z,99.90
2022-11-24T04:39:23.378Z,99.90
2022-11-24T04:41:21.739Z,99.90
2022-11-24T04:43:50.491Z,99.90
2022-11-24T04:46:17.894Z,99.90
2022-11-24T04:48:45.241Z,99.90
2022-11-24T04:51:14.958Z,99.90
2022-11-24T04:53:42.591Z,99.90
2022-11-24T04:56:10.066Z,99.90
2022-11-24T04:58:37.476Z,99.90
2022-11-24T05:01:08.332Z,99.60
2022-11-24T05:03:36.937Z,99.90
2022-11-24T05:06:04.432Z,99.90
2022-11-24T05:08:31.859Z,99.70
2022-11-24T05:11:04.849Z,99.60
2022-11-24T05:13:32.751Z,99.90
2022-11-24T05:16:01.605Z,99.60
2022-11-24T05:18:29.118Z,99.40
2022-11-24T05:20:58.298Z,99.50
2022-11-24T05:23:25.944Z,99.90
2022-11-24T05:25:53.638Z,99.50
2022-11-24T05:28:20.981Z,99.50
2022-11-24T05:30:48.326Z,99.80
2022-11-24T05:33:23.008Z,99.70
2022-11-24T05:35:50.652Z,99.90
2022-11-24T05:38:18.431Z,99.90
2022-11-24T05:40:45.896Z,99.90
2022-11-24T05:43:14.667Z,99.50
2022-11-24T05:45:42.288Z,99.90
2022-11-24T05:48:13.820Z,99.90
2022-11-24T05:50:41.473Z,99.90
2022-11-24T05:53:11.763Z,99.60
2022-11-24T05:55:41.174Z,99.90
2022-11-24T05:58:09.947Z,99.80
2022-11-24T06:00:37.672Z,99.80
2022-11-24T06:03:05.161Z,99.90
2022-11-24T06:05:32.945Z,99.30
2022-11-24T06:08:01.206Z,99.60
2022-11-24T06:10:28.862Z,99.50
2022-11-24T06:12:56.209Z,99.50
2022-11-24T06:15:23.740Z,99.50
2022-11-24T06:17:55.832Z,99.50
2022-11-24T06:20:28.273Z,99.90
2022-11-24T06:22:59.161Z,99.70
2022-11-24T06:25:26.697Z,99.50
2022-11-24T06:27:53.989Z,99.50
2022-11-24T06:30:21.369Z,99.60
2022-11-24T06:32:50.018Z,99.60
2022-11-24T06:35:17.683Z,99.90
2022-11-24T06:37:45.903Z,99.40
2022-11-24T06:40:13.975Z,99.90
2022-11-24T06:42:41.656Z,99.90
2022-11-24T06:45:09.843Z,99.90
2022-11-24T06:47:37.393Z,99.90
2022-11-24T06:50:05.160Z,99.80
2022-11-24T06:55:13.635Z,99.20
2022-11-24T06:57:41.054Z,99.90
2022-11-24T07:00:11.884Z,99.90
2022-11-24T07:02:45.507Z,99.60
2022-11-24T07:05:13.425Z,99.90
2022-11-24T07:07:40.847Z,99.90
2022-11-24T07:10:08.452Z,99.90
2022-11-24T07:12:35.700Z,99.90
2022-11-24T07:15:05.728Z,99.60
2022-11-24T07:17:40.339Z,99.90
2022-11-24T07:20:09.006Z,99.90
2022-11-24T07:22:36.315Z,99.90
2022-11-24T07:25:07.253Z,99.60
2022-11-24T07:27:34.733Z,99.70
2022-11-24T07:30:02.388Z,99.80
2022-11-24T07:32:29.900Z,99.70
2022-11-24T07:38:14.461Z,99.90
2022-11-24T07:40:42.302Z,99.90
2022-11-24T07:43:19.944Z,99.90
2022-11-24T07:45:55.342Z,99.90
2022-11-24T07:48:23.186Z,99.90
2022-11-24T07:50:56.145Z,99.90
2022-11-24T07:53:30.253Z,99.90
2022-11-24T07:56:04.092Z,99.90
2022-11-24T07:58:33.819Z,99.90
2022-11-24T08:01:10.805Z,99.90
2022-11-24T08:03:38.382Z,99.90
2022-11-24T08:12:25.851Z,99.90
2022-11-24T08:14:55.801Z,99.90
2022-11-24T08:17:28.104Z,99.90
2022-11-24T08:19:59.605Z,99.90
2022-11-24T08:22:59.003Z,99.90
2022-11-24T08:25:32.188Z,99.50
2022-11-24T08:28:01.262Z,99.90
2022-11-24T08:30:29.274Z,99.90
2022-11-24T08:32:59.790Z,99.90
2022-11-24T08:35:28.490Z,99.90
2022-11-24T08:37:58.145Z,99.90
2022-11-24T08:40:29.052Z,99.90
2022-11-24T08:43:02.647Z,99.90
2022-11-24T08:57:43.458Z,99.80
2022-11-24T09:00:11.767Z,99.90
2022-11-24T09:02:39.153Z,99.90
2022-11-24T09:05:22.484Z,99.90
2022-11-24T09:07:54.141Z,99.90
2022-11-24T09:10:21.628Z,99.90
2022-11-24T09:12:49.105Z,99.80
2022-11-24T09:15:17.076Z,99.90
2022-11-24T09:17:44.451Z,99.70
2022-11-24T09:20:12.351Z,99.90
2022-11-24T09:22:41.697Z,99.90
2022-11-24T09:25:09.657Z,99.70
2022-11-24T09:27:37.254Z,99.80
2022-11-24T09:30:05.568Z,99.60
2022-11-24T09:32:33.114Z,99.80
2022-11-24T09:35:00.413Z,99.70
2022-11-24T09:37:32.421Z,99.60
2022-11-24T09:40:00.290Z,99.70
2022-11-24T09:52:46.393Z,99.90
2022-11-24T10:05:38.538Z,99.90
2022-11-24T10:08:46.456Z,99.90
2022-11-24T10:11:20.276Z,99.90
2022-11-24T10:13:51.300Z,99.90
2022-11-24T10:17:07.390Z,99.90
2022-11-24T10:27:07.870Z,99.90
2022-11-24T10:29:41.443Z,99.90
2022-11-24T10:32:24.419Z,99.90
2022-11-24T10:34:54.105Z,99.90
2022-11-24T10:37:40.602Z,99.90
2022-11-24T10:43:37.697Z,99.40
2022-11-24T11:03:20.729Z,99.80
2022-11-24T11:05:50.893Z,99.90
2022-11-24T11:08:21.839Z,99.90
2022-11-24T11:10:51.789Z,99.90
2022-11-24T11:13:30.743Z,99.80
2022-11-24T11:15:59.382Z,99.90
2022-11-24T11:18:34.003Z,99.90
2022-11-24T11:21:02.621Z,99.90
2022-11-24T11:23:34.245Z,99.90
2022-11-24T11:26:31.627Z,99.90
2022-11-24T11:34:49.780Z,99.90
2022-11-24T11:37:19.958Z,99.40
2022-11-24T11:39:50.768Z,99.50
2022-11-24T11:45:23.301Z,99.90
2022-11-24T11:48:07.680Z,99.40
2022-11-24T11:51:21.220Z,95.70
2022-11-24T11:53:46.662Z,95.40
2022-11-24T11:56:32.711Z,94.40
2022-11-24T11:59:31.889Z,93.00
2022-11-24T12:02:35.934Z,92.90
2022-11-24T12:05:44.875Z,92.70
2022-11-24T12:08:31.343Z,92.70
2022-11-24T12:14:55.361Z,93.80
2022-11-24T12:17:40.229Z,94.30
2022-11-24T12:20:17.114Z,95.00
2022-11-24T12:23:13.349Z,95.20
2022-11-24T12:25:47.647Z,95.10
2022-11-24T12:28:23.774Z,95.40
2022-11-24T12:31:46.631Z,96.00
2022-11-24T12:34:35.551Z,95.50
2022-11-24T12:37:18.174Z,95.50
2022-11-24T12:39:54.551Z,95.20
2022-11-24T12:42:45.797Z,95.50
2022-11-24T12:45:16.851Z,95.50
2022-11-24T12:48:05.495Z,95.80
2022-11-24T12:50:37.891Z,96.10
2022-11-24T12:53:05.241Z,96.30
2022-11-24T12:55:34.363Z,95.90
2022-11-24T12:58:22.776Z,95.20
2022-11-24T13:01:19.399Z,95.00
2022-11-24T13:04:24.007Z,95.10
2022-11-24T13:07:11.558Z,95.40
2022-11-24T13:09:59.567Z,95.70
2022-11-24T13:12:26.945Z,95.00
2022-11-24T13:14:55.227Z,94.90
2022-11-24T13:17:42.010Z,95.00
2022-11-24T13:20:20.478Z,95.30
2022-11-24T13:22:56.953Z,95.90
2022-11-24T13:25:33.021Z,96.00
2022-11-24T13:28:02.781Z,96.00
2022-11-24T13:30:36.245Z,95.70
2022-11-24T13:33:16.618Z,96.20
2022-11-24T13:36:02.941Z,95.60
2022-11-24T13:38:46.319Z,96.60
2022-11-24T13:41:32.953Z,99.30
2022-11-24T13:44:16.692Z,98.80
2022-11-24T13:47:09.927Z,98.80
2022-11-24T13:49:47.411Z,97.30
2022-11-24T13:55:38.924Z,96.40
2022-11-24T13:58:09.427Z,97.20
2022-11-24T14:01:06.257Z,97.80
2022-11-24T14:04:28.533Z,96.00
2022-11-24T14:06:53.500Z,96.50
2022-11-24T14:09:36.283Z,97.90
2022-11-24T14:12:12.041Z,96.30
2022-11-24T14:38:52.062Z,97.30
2022-11-24T14:41:26.144Z,99.90
2022-11-24T14:47:31.193Z,97.50
2022-11-24T14:53:26.395Z,97.60
2022-11-24T15:06:33.673Z,97.90
2022-11-24T15:09:22.312Z,99.10
2022-11-24T15:11:49.949Z,99.40
2022-11-24T15:14:50.302Z,99.30
2022-11-24T15:17:21.076Z,98.40
2022-11-24T15:19:54.447Z,98.20
2022-11-24T15:22:41.989Z,98.80
2022-11-24T15:25:26.256Z,98.20
2022-11-24T15:27:54.083Z,99.90
2022-11-24T15:30:22.191Z,99.90
2022-11-24T15:32:54.302Z,99.90
2022-11-24T15:35:23.039Z,98.90
2022-11-24T15:37:50.622Z,98.80
2022-11-24T15:40:19.190Z,98.40
2022-11-24T15:42:59.525Z,98.40
2022-11-24T15:45:29.528Z,98.20
2022-11-24T15:47:57.118Z,99.90
2022-11-24T15:50:25.026Z,99.90
2022-11-24T15:52:53.349Z,99.90
2022-11-24T15:55:22.437Z,99.60
2022-11-24T15:57:50.193Z,99.00
2022-11-24T16:00:20.430Z,99.90
2022-11-24T16:02:48.593Z,99.40
2022-11-24T16:05:18.092Z,99.00
2022-11-24T16:07:45.641Z,99.90
2022-11-24T16:10:27.965Z,99.90
2022-11-24T16:12:55.627Z,99.60
2022-11-24T16:15:23.323Z,99.90
2022-11-24T16:17:51.261Z,99.90
2022-11-24T16:20:18.954Z,99.90
2022-11-24T16:22:46.564Z,99.20
2022-11-24T16:25:14.714Z,99.90
2022-11-24T16:27:42.082Z,99.90
2022-11-24T16:30:12.319Z,99.50
2022-11-24T16:32:39.769Z,98.90
2022-11-24T16:35:07.602Z,99.90
2022-11-24T16:37:35.031Z,99.40
2022-11-24T16:40:02.944Z,99.90
2022-11-24T16:42:31.525Z,99.20
2022-11-24T16:45:02.649Z,99.00
2022-11-24T16:47:30.236Z,99.90
2022-11-24T16:49:58.171Z,99.80
2022-11-24T16:52:26.246Z,99.60
2022-11-24T16:54:54.066Z,99.90
2022-11-24T16:57:21.577Z,99.90
2022-11-24T16:59:49.232Z,99.90
2022-11-24T17:02:16.962Z,99.90
2022-11-24T17:04:45.269Z,99.90
2022-11-24T17:07:14.224Z,99.90
2022-11-24T17:09:42.024Z,99.90
2022-11-24T17:12:09.612Z,99.90
2022-11-24T17:14:37.722Z,99.90
2022-11-24T17:17:05.758Z,99.90
2022-11-24T17:19:35.000Z,99.90
2022-11-24T17:22:05.299Z,98.40
2022-11-24T17:24:33.111Z,99.90
2022-11-24T17:27:00.705Z,99.90
2022-11-24T17:29:30.175Z,99.60
2022-11-24T17:31:58.014Z,99.80
2022-11-24T17:34:28.615Z,99.90
2022-11-24T17:36:56.159Z,99.90
2022-11-24T17:39:25.468Z,99.90
2022-11-24T17:41:53.235Z,99.90
2022-11-24T17:44:21.294Z,99.90
2022-11-24T17:46:49.104Z,99.90
2022-11-24T17:49:20.836Z,99.90
2022-11-24T17:51:50.460Z,98.80
2022-11-24T17:57:06.027Z,98.90
2022-11-24T17:59:33.634Z,99.20
2022-11-24T18:02:00.984Z,99.00
2022-11-24T18:04:28.383Z,98.80
2022-11-24T18:06:58.355Z,98.70
2022-11-24T18:09:25.826Z,99.00
2022-11-24T18:11:53.457Z,98.70
2022-11-24T18:14:24.345Z,99.40
2022-11-24T18:16:51.843Z,99.90
2022-11-24T18:19:19.336Z,98.90
2022-11-24T18:21:47.019Z,99.30
2022-11-24T18:24:17.477Z,99.10
2022-11-24T18:26:48.477Z,98.70
2022-11-24T18:29:16.500Z,98.80
2022-11-24T18:31:43.960Z,98.60
2022-11-24T18:34:11.307Z,98.80
2022-11-24T18:36:38.895Z,99.10
2022-11-24T18:39:14.152Z,98.80
2022-11-24T18:41:41.473Z,99.00
2022-11-24T18:44:08.914Z,99.30
2022-11-24T18:46:37.645Z,98.70
2022-11-24T18:49:05.690Z,98.90
2022-11-24T18:51:34.147Z,98.90
2022-11-24T18:54:03.106Z,99.90
2022-11-24T18:56:30.586Z,99.90
2022-11-24T18:58:58.154Z,99.90
2022-11-24T19:01:27.846Z,99.70
2022-11-24T19:03:58.105Z,99.20
2022-11-24T19:06:32.732Z,99.80
2022-11-24T19:09:04.124Z,99.50
2022-11-24T19:11:34.078Z,99.90
2022-11-24T19:14:03.997Z,99.40
2022-11-24T19:16:32.256Z,99.40
2022-11-24T19:19:01.814Z,99.90
2022-11-24T19:21:34.429Z,99.90
2022-11-24T19:24:05.426Z,99.60
2022-11-24T19:26:37.823Z,99.90
2022-11-24T19:29:06.745Z,99.80
2022-11-24T19:31:39.392Z,99.30
2022-11-24T19:34:09.117Z,99.90
2022-11-24T19:36:37.108Z,99.90
2022-11-24T19:39:05.288Z,99.90
2022-11-24T19:41:34.034Z,99.30
2022-11-24T19:44:01.657Z,99.50
2022-11-24T19:46:30.236Z,99.80
2022-11-24T19:49:00.867Z,98.60
2022-11-24T19:51:33.179Z,99.90
2022-11-24T19:54:01.336Z,99.00
2022-11-24T19:56:32.069Z,99.70
2022-11-24T19:58:59.783Z,99.90
2022-11-24T20:01:29.953Z,99.80
2022-11-24T20:04:01.952Z,99.80
2022-11-24T20:06:36.722Z,98.50
2022-11-24T20:09:04.751Z,99.10
2022-11-24T20:11:32.006Z,99.90
2022-11-24T20:14:00.409Z,98.80
2022-11-24T20:16:32.462Z,99.80
2022-11-24T20:19:06.220Z,99.60
2022-11-24T20:21:35.453Z,99.60
2022-11-24T20:24:13.572Z,99.20
2022-11-24T20:26:46.880Z,99.30
2022-11-24T20:29:14.465Z,99.50
2022-11-24T20:31:47.809Z,99.20
2022-11-24T20:34:15.642Z,99.90
2022-11-24T20:36:45.363Z,99.00
2022-11-24T20:39:16.684Z,99.30
2022-11-24T20:41:44.678Z,99.10
2022-11-24T20:44:15.390Z,99.00
2022-11-24T20:46:44.919Z,99.80
2022-11-24T20:49:18.966Z,99.40
2022-11-24T20:51:49.225Z,99.20
2022-11-24T20:54:18.140Z,98.80
2022-11-24T20:56:46.533Z,99.50
2022-11-24T20:59:16.805Z,99.40
2022-11-24T21:01:45.816Z,99.50
2022-11-24T21:04:21.827Z,99.20
2022-11-24T21:06:49.799Z,99.30
2022-11-24T21:09:17.558Z,98.80
2022-11-24T21:11:45.378Z,99.10
2022-11-24T21:14:13.218Z,99.50
2022-11-24T21:16:42.183Z,99.60
2022-11-24T21:19:14.866Z,99.40
2022-11-24T21:21:43.181Z,99.70
2022-11-24T21:24:13.168Z,99.40
2022-11-24T21:26:41.914Z,99.40
2022-11-24T21:29:11.890Z,99.20
2022-11-24T21:31:39.716Z,99.50
2022-11-24T21:34:08.197Z,98.80
2022-11-24T21:36:36.168Z,99.00
2022-11-24T21:39:04.432Z,98.90
2022-11-24T21:41:33.347Z,99.20
2022-11-24T21:44:00.810Z,99.20
2022-11-24T21:46:38.940Z,99.00
2022-11-24T21:49:09.856Z,99.20
2022-11-24T21:51:37.381Z,98.90
2022-11-24T21:54:08.911Z,99.30
2022-11-24T21:56:36.244Z,99.50
2022-11-24T21:59:03.591Z,98.90
2022-11-24T22:01:31.021Z,98.80
2022-11-24T22:03:58.589Z,99.00
2022-11-24T22:06:26.131Z,98.80
2022-11-24T22:08:54.810Z,98.90
2022-11-24T22:11:24.611Z,98.70
2022-11-24T22:13:52.882Z,99.00
2022-11-24T22:16:24.634Z,99.10
2022-11-24T22:18:52.201Z,99.30
2022-11-24T22:21:30.526Z,98.70
2022-11-24T22:23:57.827Z,99.00
2022-11-24T22:26:26.240Z,98.70
2022-11-24T22:28:54.647Z,99.20
2022-11-24T22:31:27.331Z,99.10
2022-11-24T22:33:56.399Z,98.70
2022-11-24T22:36:25.904Z,99.50
2022-11-24T22:38:58.973Z,99.00
2022-11-24T22:41:26.454Z,99.40
2022-11-24T22:43:53.910Z,99.20
2022-11-24T22:46:23.810Z,98.60
2022-11-24T22:48:53.034Z,99.10
2022-11-24T22:51:29.047Z,99.30
2022-11-24T22:53:58.661Z,99.40
2022-11-24T22:56:27.929Z,99.30
2022-11-24T22:58:55.439Z,98.50
2022-11-24T23:01:24.866Z,98.80
2022-11-24T23:03:55.939Z,99.10
2022-11-24T23:06:29.065Z,99.00
2022-11-24T23:08:58.350Z,99.40
2022-11-24T23:11:34.814Z,99.10
2022-11-24T23:14:06.827Z,99.40
2022-11-24T23:16:34.359Z,99.40
2022-11-24T23:19:01.713Z,99.40
2022-11-24T23:21:31.344Z,99.30
2022-11-24T23:24:00.533Z,99.50
2022-11-24T23:26:31.049Z,99.10
2022-11-24T23:28:58.740Z,99.50
2022-11-24T23:31:30.271Z,98.90
2022-11-24T23:34:04.609Z,98.90
2022-11-24T23:36:32.845Z,99.90
2022-11-24T23:39:08.994Z,98.80
2022-11-24T23:41:36.429Z,99.40
2022-11-24T23:44:03.913Z,99.20
2022-11-24T23:46:31.298Z,98.70
2022-11-24T23:48:59.326Z,98.80
2022-11-24T23:51:28.589Z,98.70
2022-11-24T23:53:56.595Z,99.10
2022-11-24T23:56:26.971Z,98.80
2022-11-24T23:58:54.394Z,99.10
